sensor_id;sensor_type;location;lat;lon;timestamp;P1;durP1;ratioP1;P2;durP2;ratioP2
1471;SDS011;963;42.644;23.336;2023-02-28T00:00:26;19.80;;;11.27;;
1471;SDS011;963;42.644;23.336;2023-02-28T00:02:52;15.77;;;10.97;;
1471;SDS011;963;42.644;23.336;2023-02-28T00:05:19;17.37;;;11.83;;
1471;SDS011;963;42.644;23.336;2023-02-28T00:07:46;18.30;;;11.87;;
1471;SDS011;963;42.644;23.336;2023-02-28T00:10:14;17.33;;;12.30;;
1471;SDS011;963;42.644;23.336;2023-02-28T00:12:45;16.20;;;12.47;;
1471;SDS011;963;42.644;23.336;2023-02-28T00:15:11;18.83;;;12.13;;
1471;SDS011;963;42.644;23.336;2023-02-28T00:17:37;18.87;;;13.10;;
1471;SDS011;963;42.644;23.336;2023-02-28T00:20:03;21.67;;;13.27;;
1471;SDS011;963;42.644;23.336;2023-02-28T00:22:31;21.13;;;13.50;;
1471;SDS011;963;42.644;23.336;2023-02-28T00:24:56;22.53;;;12.77;;
1471;SDS011;963;42.644;23.336;2023-02-28T00:27:22;19.33;;;13.43;;
1471;SDS011;963;42.644;23.336;2023-02-28T00:29:47;15.87;;;10.90;;
1471;SDS011;963;42.644;23.336;2023-02-28T00:32:14;18.13;;;12.07;;
1471;SDS011;963;42.644;23.336;2023-02-28T00:34:39;14.43;;;9.90;;
1471;SDS011;963;42.644;23.336;2023-02-28T00:37:05;16.60;;;11.40;;
1471;SDS011;963;42.644;23.336;2023-02-28T00:39:33;17.63;;;11.70;;
1471;SDS011;963;42.644;23.336;2023-02-28T00:41:59;17.40;;;11.57;;
1471;SDS011;963;42.644;23.336;2023-02-28T00:44:25;14.57;;;9.93;;
1471;SDS011;963;42.644;23.336;2023-02-28T00:46:50;13.77;;;9.67;;
1471;SDS011;963;42.644;23.336;2023-02-28T00:49:16;14.27;;;10.37;;
1471;SDS011;963;42.644;23.336;2023-02-28T00:51:42;15.20;;;10.87;;
1471;SDS011;963;42.644;23.336;2023-02-28T00:54:08;13.20;;;9.27;;
1471;SDS011;963;42.644;23.336;2023-02-28T00:56:33;13.70;;;9.83;;
1471;SDS011;963;42.644;23.336;2023-02-28T00:58:59;12.43;;;10.03;;
1471;SDS011;963;42.644;23.336;2023-02-28T01:01:24;16.23;;;10.23;;
1471;SDS011;963;42.644;23.336;2023-02-28T01:03:49;13.60;;;10.13;;
1471;SDS011;963;42.644;23.336;2023-02-28T01:06:15;15.80;;;11.47;;
1471;SDS011;963;42.644;23.336;2023-02-28T01:08:40;14.97;;;10.70;;
1471;SDS011;963;42.644;23.336;2023-02-28T01:11:10;14.80;;;10.40;;
1471;SDS011;963;42.644;23.336;2023-02-28T01:13:36;17.40;;;12.63;;
1471;SDS011;963;42.644;23.336;2023-02-28T01:16:02;15.50;;;11.13;;
1471;SDS011;963;42.644;23.336;2023-02-28T01:18:27;18.07;;;11.53;;
1471;SDS011;963;42.644;23.336;2023-02-28T01:20:53;18.17;;;12.10;;
1471;SDS011;963;42.644;23.336;2023-02-28T01:23:20;15.70;;;11.40;;
1471;SDS011;963;42.644;23.336;2023-02-28T01:25:48;18.47;;;12.97;;
1471;SDS011;963;42.644;23.336;2023-02-28T01:28:14;16.50;;;12.90;;
1471;SDS011;963;42.644;23.336;2023-02-28T01:30:39;16.80;;;12.33;;
1471;SDS011;963;42.644;23.336;2023-02-28T01:33:04;16.13;;;12.10;;
1471;SDS011;963;42.644;23.336;2023-02-28T01:35:33;16.87;;;12.30;;
1471;SDS011;963;42.644;23.336;2023-02-28T01:38:00;18.33;;;13.10;;
1471;SDS011;963;42.644;23.336;2023-02-28T01:40:25;19.13;;;13.97;;
1471;SDS011;963;42.644;23.336;2023-02-28T01:42:51;18.87;;;14.70;;
1471;SDS011;963;42.644;23.336;2023-02-28T01:47:48;18.10;;;13.40;;
1471;SDS011;963;42.644;23.336;2023-02-28T01:50:18;20.10;;;13.37;;
1471;SDS011;963;42.644;23.336;2023-02-28T01:52:47;18.17;;;13.63;;
1471;SDS011;963;42.644;23.336;2023-02-28T01:55:14;18.90;;;13.73;;
1471;SDS011;963;42.644;23.336;2023-02-28T01:57:46;19.37;;;13.87;;
1471;SDS011;963;42.644;23.336;2023-02-28T02:00:16;20.10;;;13.63;;
1471;SDS011;963;42.644;23.336;2023-02-28T02:02:45;18.80;;;13.73;;
1471;SDS011;963;42.644;23.336;2023-02-28T02:05:21;22.93;;;14.20;;
1471;SDS011;963;42.644;23.336;2023-02-28T02:07:50;20.20;;;13.67;;
1471;SDS011;963;42.644;23.336;2023-02-28T02:10:20;18.13;;;13.30;;
1471;SDS011;963;42.644;23.336;2023-02-28T02:13:00;19.67;;;14.60;;
1471;SDS011;963;42.644;23.336;2023-02-28T02:18:26;21.73;;;15.00;;
1471;SDS011;963;42.644;23.336;2023-02-28T02:34:41;25.13;;;15.27;;
1471;SDS011;963;42.644;23.336;2023-02-28T02:37:26;23.63;;;15.07;;
1471;SDS011;963;42.644;23.336;2023-02-28T02:42:29;23.50;;;14.93;;
1471;SDS011;963;42.644;23.336;2023-02-28T02:45:12;22.17;;;15.77;;
1471;SDS011;963;42.644;23.336;2023-02-28T02:47:39;23.30;;;16.10;;
1471;SDS011;963;42.644;23.336;2023-02-28T02:50:08;22.13;;;16.40;;
1471;SDS011;963;42.644;23.336;2023-02-28T02:52:45;27.13;;;17.80;;
1471;SDS011;963;42.644;23.336;2023-02-28T02:55:14;26.30;;;15.73;;
1471;SDS011;963;42.644;23.336;2023-02-28T02:57:49;23.97;;;15.40;;
1471;SDS011;963;42.644;23.336;2023-02-28T03:00:20;28.33;;;17.97;;
1471;SDS011;963;42.644;23.336;2023-02-28T03:02:51;26.37;;;18.20;;
1471;SDS011;963;42.644;23.336;2023-02-28T03:05:26;29.90;;;18.43;;
1471;SDS011;963;42.644;23.336;2023-02-28T03:07:58;28.00;;;18.90;;
1471;SDS011;963;42.644;23.336;2023-02-28T03:10:28;31.17;;;18.83;;
1471;SDS011;963;42.644;23.336;2023-02-28T03:18:37;27.63;;;18.57;;
1471;SDS011;963;42.644;23.336;2023-02-28T03:21:34;31.77;;;19.57;;
1471;SDS011;963;42.644;23.336;2023-02-28T03:24:07;31.47;;;19.70;;
1471;SDS011;963;42.644;23.336;2023-02-28T03:26:39;35.67;;;20.70;;
1471;SDS011;963;42.644;23.336;2023-02-28T03:29:20;32.00;;;19.37;;
1471;SDS011;963;42.644;23.336;2023-02-28T03:31:58;27.00;;;18.60;;
1471;SDS011;963;42.644;23.336;2023-02-28T03:34:29;31.37;;;19.90;;
1471;SDS011;963;42.644;23.336;2023-02-28T03:37:00;33.87;;;19.07;;
1471;SDS011;963;42.644;23.336;2023-02-28T03:39:34;31.10;;;20.47;;
1471;SDS011;963;42.644;23.336;2023-02-28T03:42:07;31.80;;;20.73;;
1471;SDS011;963;42.644;23.336;2023-02-28T03:44:41;24.30;;;16.20;;
1471;SDS011;963;42.644;23.336;2023-02-28T03:47:24;26.20;;;16.80;;
1471;SDS011;963;42.644;23.336;2023-02-28T03:49:57;26.83;;;17.33;;
1471;SDS011;963;42.644;23.336;2023-02-28T03:52:29;26.40;;;17.47;;
1471;SDS011;963;42.644;23.336;2023-02-28T03:55:01;26.57;;;17.00;;
1471;SDS011;963;42.644;23.336;2023-02-28T04:00:07;33.67;;;20.03;;
1471;SDS011;963;42.644;23.336;2023-02-28T04:02:37;28.73;;;18.43;;
1471;SDS011;963;42.644;23.336;2023-02-28T04:05:02;31.47;;;18.70;;
1471;SDS011;963;42.644;23.336;2023-02-28T04:07:31;29.10;;;18.13;;
1471;SDS011;963;42.644;23.336;2023-02-28T04:09:57;28.70;;;17.37;;
1471;SDS011;963;42.644;23.336;2023-02-28T04:12:23;32.90;;;19.20;;
1471;SDS011;963;42.644;23.336;2023-02-28T04:14:49;26.30;;;16.83;;
1471;SDS011;963;42.644;23.336;2023-02-28T04:17:15;26.60;;;17.03;;
1471;SDS011;963;42.644;23.336;2023-02-28T04:19:41;41.50;;;18.90;;
1471;SDS011;963;42.644;23.336;2023-02-28T04:22:07;35.50;;;17.57;;
1471;SDS011;963;42.644;23.336;2023-02-28T04:24:33;25.90;;;16.40;;
1471;SDS011;963;42.644;23.336;2023-02-28T04:26:59;25.60;;;15.47;;
1471;SDS011;963;42.644;23.336;2023-02-28T04:29:26;28.20;;;17.20;;
1471;SDS011;963;42.644;23.336;2023-02-28T04:31:53;25.80;;;16.97;;
1471;SDS011;963;42.644;23.336;2023-02-28T04:34:22;26.67;;;15.30;;
1471;SDS011;963;42.644;23.336;2023-02-28T04:36:48;25.20;;;16.60;;
1471;SDS011;963;42.644;23.336;2023-02-28T04:39:15;26.83;;;16.47;;
1471;SDS011;963;42.644;23.336;2023-02-28T04:41:43;27.13;;;15.87;;
1471;SDS011;963;42.644;23.336;2023-02-28T04:44:09;26.70;;;16.37;;
1471;SDS011;963;42.644;23.336;2023-02-28T04:46:34;24.57;;;16.03;;
1471;SDS011;963;42.644;23.336;2023-02-28T04:49:00;29.53;;;16.53;;
1471;SDS011;963;42.644;23.336;2023-02-28T04:51:25;27.60;;;16.40;;
1471;SDS011;963;42.644;23.336;2023-02-28T04:53:51;30.93;;;15.90;;
1471;SDS011;963;42.644;23.336;2023-02-28T04:56:17;24.13;;;14.77;;
1471;SDS011;963;42.644;23.336;2023-02-28T04:58:43;23.10;;;14.80;;
1471;SDS011;963;42.644;23.336;2023-02-28T05:01:25;26.10;;;16.20;;
1471;SDS011;963;42.644;23.336;2023-02-28T05:03:56;25.00;;;15.30;;
1471;SDS011;963;42.644;23.336;2023-02-28T05:06:24;25.83;;;13.97;;
1471;SDS011;963;42.644;23.336;2023-02-28T05:08:51;25.23;;;14.50;;
1471;SDS011;963;42.644;23.336;2023-02-28T05:11:19;29.97;;;15.60;;
1471;SDS011;963;42.644;23.336;2023-02-28T05:13:59;22.60;;;14.67;;
1471;SDS011;963;42.644;23.336;2023-02-28T05:16:28;23.60;;;13.90;;
1471;SDS011;963;42.644;23.336;2023-02-28T05:18:54;22.10;;;14.33;;
1471;SDS011;963;42.644;23.336;2023-02-28T05:21:27;28.73;;;17.10;;
1471;SDS011;963;42.644;23.336;2023-02-28T05:23:55;25.63;;;15.83;;
1471;SDS011;963;42.644;23.336;2023-02-28T05:26:23;25.30;;;14.87;;
1471;SDS011;963;42.644;23.336;2023-02-28T05:28:49;27.50;;;15.77;;
1471;SDS011;963;42.644;23.336;2023-02-28T05:31:14;26.50;;;15.33;;
1471;SDS011;963;42.644;23.336;2023-02-28T05:33:40;25.90;;;17.00;;
1471;SDS011;963;42.644;23.336;2023-02-28T05:36:06;29.90;;;15.80;;
1471;SDS011;963;42.644;23.336;2023-02-28T05:38:31;28.40;;;16.43;;
1471;SDS011;963;42.644;23.336;2023-02-28T05:40:57;30.97;;;16.70;;
1471;SDS011;963;42.644;23.336;2023-02-28T05:43:23;28.87;;;17.33;;
1471;SDS011;963;42.644;23.336;2023-02-28T05:45:48;26.27;;;16.67;;
1471;SDS011;963;42.644;23.336;2023-02-28T05:48:14;28.90;;;17.20;;
1471;SDS011;963;42.644;23.336;2023-02-28T05:50:40;28.50;;;17.70;;
1471;SDS011;963;42.644;23.336;2023-02-28T05:53:05;25.73;;;17.03;;
1471;SDS011;963;42.644;23.336;2023-02-28T05:55:31;33.80;;;19.77;;
1471;SDS011;963;42.644;23.336;2023-02-28T05:57:56;30.20;;;18.70;;
1471;SDS011;963;42.644;23.336;2023-02-28T06:00:22;30.63;;;19.03;;
1471;SDS011;963;42.644;23.336;2023-02-28T06:02:48;34.67;;;20.60;;
1471;SDS011;963;42.644;23.336;2023-02-28T06:05:14;30.23;;;19.60;;
1471;SDS011;963;42.644;23.336;2023-02-28T06:07:42;32.80;;;19.00;;
1471;SDS011;963;42.644;23.336;2023-02-28T06:10:09;28.37;;;17.10;;
1471;SDS011;963;42.644;23.336;2023-02-28T06:12:36;24.60;;;17.50;;
1471;SDS011;963;42.644;23.336;2023-02-28T06:15:02;29.17;;;18.60;;
1471;SDS011;963;42.644;23.336;2023-02-28T06:17:28;33.93;;;22.10;;
1471;SDS011;963;42.644;23.336;2023-02-28T06:19:53;32.60;;;22.00;;
1471;SDS011;963;42.644;23.336;2023-02-28T06:22:19;35.50;;;20.20;;
1471;SDS011;963;42.644;23.336;2023-02-28T06:24:44;30.67;;;20.77;;
1471;SDS011;963;42.644;23.336;2023-02-28T06:27:09;31.83;;;20.67;;
1471;SDS011;963;42.644;23.336;2023-02-28T06:29:35;35.47;;;21.60;;
1471;SDS011;963;42.644;23.336;2023-02-28T06:32:01;39.13;;;19.73;;
1471;SDS011;963;42.644;23.336;2023-02-28T06:34:27;30.77;;;18.83;;
1471;SDS011;963;42.644;23.336;2023-02-28T06:36:52;31.47;;;18.90;;
1471;SDS011;963;42.644;23.336;2023-02-28T06:39:18;28.97;;;19.43;;
1471;SDS011;963;42.644;23.336;2023-02-28T06:41:44;29.87;;;20.90;;
1471;SDS011;963;42.644;23.336;2023-02-28T06:44:13;35.73;;;21.67;;
1471;SDS011;963;42.644;23.336;2023-02-28T06:46:41;36.67;;;23.00;;
1471;SDS011;963;42.644;23.336;2023-02-28T06:49:08;38.50;;;22.43;;
1471;SDS011;963;42.644;23.336;2023-02-28T06:51:35;30.77;;;19.33;;
1471;SDS011;963;42.644;23.336;2023-02-28T06:54:02;24.47;;;17.83;;
1471;SDS011;963;42.644;23.336;2023-02-28T06:56:28;27.80;;;18.30;;
1471;SDS011;963;42.644;23.336;2023-02-28T06:58:54;25.67;;;16.73;;
1471;SDS011;963;42.644;23.336;2023-02-28T07:01:19;26.20;;;17.63;;
1471;SDS011;963;42.644;23.336;2023-02-28T07:03:45;27.90;;;18.23;;
1471;SDS011;963;42.644;23.336;2023-02-28T07:06:11;27.20;;;19.00;;
1471;SDS011;963;42.644;23.336;2023-02-28T07:08:37;33.10;;;19.40;;
1471;SDS011;963;42.644;23.336;2023-02-28T07:11:03;29.47;;;18.17;;
1471;SDS011;963;42.644;23.336;2023-02-28T07:13:28;24.70;;;17.70;;
1471;SDS011;963;42.644;23.336;2023-02-28T07:15:58;29.27;;;20.10;;
1471;SDS011;963;42.644;23.336;2023-02-28T07:18:28;25.90;;;19.47;;
1471;SDS011;963;42.644;23.336;2023-02-28T07:20:54;28.93;;;17.77;;
1471;SDS011;963;42.644;23.336;2023-02-28T07:23:20;32.60;;;19.37;;
1471;SDS011;963;42.644;23.336;2023-02-28T07:25:46;32.50;;;21.50;;
1471;SDS011;963;42.644;23.336;2023-02-28T07:28:12;34.93;;;19.27;;
1471;SDS011;963;42.644;23.336;2023-02-28T07:30:38;35.00;;;20.80;;
1471;SDS011;963;42.644;23.336;2023-02-28T07:33:03;32.57;;;20.10;;
1471;SDS011;963;42.644;23.336;2023-02-28T07:35:29;36.77;;;22.30;;
1471;SDS011;963;42.644;23.336;2023-02-28T07:37:56;41.30;;;25.27;;
1471;SDS011;963;42.644;23.336;2023-02-28T07:40:22;44.83;;;24.07;;
1471;SDS011;963;42.644;23.336;2023-02-28T07:42:48;38.57;;;23.77;;
1471;SDS011;963;42.644;23.336;2023-02-28T07:45:13;39.03;;;23.43;;
1471;SDS011;963;42.644;23.336;2023-02-28T07:47:39;37.00;;;23.63;;
1471;SDS011;963;42.644;23.336;2023-02-28T07:50:06;41.17;;;24.27;;
1471;SDS011;963;42.644;23.336;2023-02-28T07:52:33;41.10;;;24.53;;
1471;SDS011;963;42.644;23.336;2023-02-28T07:54:58;36.40;;;23.90;;
1471;SDS011;963;42.644;23.336;2023-02-28T07:57:23;40.00;;;25.67;;
1471;SDS011;963;42.644;23.336;2023-02-28T07:59:50;41.50;;;24.83;;
1471;SDS011;963;42.644;23.336;2023-02-28T08:02:16;33.07;;;23.00;;
1471;SDS011;963;42.644;23.336;2023-02-28T08:04:43;35.73;;;22.33;;
1471;SDS011;963;42.644;23.336;2023-02-28T08:07:09;37.63;;;23.00;;
1471;SDS011;963;42.644;23.336;2023-02-28T08:09:38;32.77;;;21.40;;
1471;SDS011;963;42.644;23.336;2023-02-28T08:12:04;35.60;;;23.20;;
1471;SDS011;963;42.644;23.336;2023-02-28T08:14:29;34.93;;;22.27;;
1471;SDS011;963;42.644;23.336;2023-02-28T08:16:55;44.73;;;25.37;;
1471;SDS011;963;42.644;23.336;2023-02-28T08:19:20;41.80;;;25.20;;
1471;SDS011;963;42.644;23.336;2023-02-28T08:21:46;41.90;;;24.97;;
1471;SDS011;963;42.644;23.336;2023-02-28T08:24:11;35.20;;;23.13;;
1471;SDS011;963;42.644;23.336;2023-02-28T08:26:36;39.43;;;23.27;;
1471;SDS011;963;42.644;23.336;2023-02-28T08:29:02;38.13;;;22.83;;
1471;SDS011;963;42.644;23.336;2023-02-28T08:31:27;38.67;;;22.70;;
1471;SDS011;963;42.644;23.336;2023-02-28T08:33:53;42.10;;;24.87;;
1471;SDS011;963;42.644;23.336;2023-02-28T08:36:20;32.73;;;22.13;;
1471;SDS011;963;42.644;23.336;2023-02-28T08:38:46;35.97;;;23.87;;
1471;SDS011;963;42.644;23.336;2023-02-28T08:41:12;35.33;;;22.77;;
1471;SDS011;963;42.644;23.336;2023-02-28T08:43:38;36.17;;;25.07;;
1471;SDS011;963;42.644;23.336;2023-02-28T08:46:05;36.53;;;22.97;;
1471;SDS011;963;42.644;23.336;2023-02-28T08:48:31;29.77;;;22.10;;
1471;SDS011;963;42.644;23.336;2023-02-28T08:50:59;33.80;;;23.83;;
1471;SDS011;963;42.644;23.336;2023-02-28T08:53:26;36.23;;;25.20;;
1471;SDS011;963;42.644;23.336;2023-02-28T08:55:56;34.33;;;23.10;;
1471;SDS011;963;42.644;23.336;2023-02-28T08:58:23;39.03;;;24.40;;
1471;SDS011;963;42.644;23.336;2023-02-28T09:00:48;38.40;;;26.60;;
1471;SDS011;963;42.644;23.336;2023-02-28T09:03:13;39.23;;;23.63;;
1471;SDS011;963;42.644;23.336;2023-02-28T09:05:39;41.43;;;24.97;;
1471;SDS011;963;42.644;23.336;2023-02-28T09:08:04;38.40;;;23.50;;
1471;SDS011;963;42.644;23.336;2023-02-28T09:10:30;34.80;;;23.80;;
1471;SDS011;963;42.644;23.336;2023-02-28T09:12:55;36.80;;;23.43;;
1471;SDS011;963;42.644;23.336;2023-02-28T09:15:20;40.90;;;24.00;;
1471;SDS011;963;42.644;23.336;2023-02-28T09:17:46;37.50;;;23.80;;
1471;SDS011;963;42.644;23.336;2023-02-28T09:20:11;41.70;;;24.83;;
1471;SDS011;963;42.644;23.336;2023-02-28T09:22:37;41.33;;;26.50;;
1471;SDS011;963;42.644;23.336;2023-02-28T09:25:03;36.27;;;24.93;;
1471;SDS011;963;42.644;23.336;2023-02-28T09:27:28;33.00;;;21.97;;
1471;SDS011;963;42.644;23.336;2023-02-28T09:29:54;36.20;;;21.03;;
1471;SDS011;963;42.644;23.336;2023-02-28T09:32:19;36.80;;;23.60;;
1471;SDS011;963;42.644;23.336;2023-02-28T09:34:45;39.57;;;25.40;;
1471;SDS011;963;42.644;23.336;2023-02-28T09:37:10;44.87;;;27.77;;
1471;SDS011;963;42.644;23.336;2023-02-28T09:39:35;45.90;;;28.20;;
1471;SDS011;963;42.644;23.336;2023-02-28T09:42:01;48.43;;;27.60;;
1471;SDS011;963;42.644;23.336;2023-02-28T09:46:57;30.93;;;17.90;;
1471;SDS011;963;42.644;23.336;2023-02-28T09:49:37;27.20;;;16.13;;
1471;SDS011;963;42.644;23.336;2023-02-28T09:52:11;26.77;;;14.77;;
1471;SDS011;963;42.644;23.336;2023-02-28T09:54:41;24.97;;;14.60;;
1471;SDS011;963;42.644;23.336;2023-02-28T09:57:09;22.73;;;13.50;;
1471;SDS011;963;42.644;23.336;2023-02-28T10:02:58;24.13;;;12.67;;
1471;SDS011;963;42.644;23.336;2023-02-28T10:08:27;26.80;;;12.40;;
1471;SDS011;963;42.644;23.336;2023-02-28T10:10:58;19.53;;;11.80;;
1471;SDS011;963;42.644;23.336;2023-02-28T10:13:39;20.77;;;11.87;;
1471;SDS011;963;42.644;23.336;2023-02-28T10:16:10;23.50;;;13.50;;
1471;SDS011;963;42.644;23.336;2023-02-28T10:18:41;27.40;;;12.13;;
1471;SDS011;963;42.644;23.336;2023-02-28T10:21:19;21.33;;;12.40;;
1471;SDS011;963;42.644;23.336;2023-02-28T10:27:17;20.90;;;12.10;;
1471;SDS011;963;42.644;23.336;2023-02-28T10:29:51;20.37;;;12.07;;
1471;SDS011;963;42.644;23.336;2023-02-28T10:35:11;26.23;;;13.20;;
1471;SDS011;963;42.644;23.336;2023-02-28T10:37:45;23.53;;;12.60;;
1471;SDS011;963;42.644;23.336;2023-02-28T10:43:00;25.17;;;12.13;;
1471;SDS011;963;42.644;23.336;2023-02-28T10:45:28;19.97;;;12.93;;
1471;SDS011;963;42.644;23.336;2023-02-28T10:48:04;29.30;;;13.30;;
1471;SDS011;963;42.644;23.336;2023-02-28T10:56:00;21.57;;;12.00;;
1471;SDS011;963;42.644;23.336;2023-02-28T11:01:44;23.07;;;13.73;;
1471;SDS011;963;42.644;23.336;2023-02-28T11:06:56;27.60;;;13.47;;
1471;SDS011;963;42.644;23.336;2023-02-28T11:09:25;23.07;;;13.60;;
1471;SDS011;963;42.644;23.336;2023-02-28T11:11:54;24.67;;;12.50;;
1471;SDS011;963;42.644;23.336;2023-02-28T11:14:21;20.10;;;12.50;;
1471;SDS011;963;42.644;23.336;2023-02-28T11:16:49;22.67;;;12.80;;
1471;SDS011;963;42.644;23.336;2023-02-28T11:19:20;22.73;;;12.70;;
1471;SDS011;963;42.644;23.336;2023-02-28T11:21:57;22.50;;;14.63;;
1471;SDS011;963;42.644;23.336;2023-02-28T11:26:51;27.43;;;12.60;;
1471;SDS011;963;42.644;23.336;2023-02-28T11:29:27;27.27;;;13.47;;
1471;SDS011;963;42.644;23.336;2023-02-28T11:34:27;22.83;;;12.77;;
1471;SDS011;963;42.644;23.336;2023-02-28T11:36:54;23.43;;;13.20;;
1471;SDS011;963;42.644;23.336;2023-02-28T11:39:21;24.13;;;13.00;;
1471;SDS011;963;42.644;23.336;2023-02-28T11:44:36;26.00;;;13.53;;
1471;SDS011;963;42.644;23.336;2023-02-28T11:50:00;22.00;;;11.57;;
1471;SDS011;963;42.644;23.336;2023-02-28T11:55:31;23.40;;;10.53;;
1471;SDS011;963;42.644;23.336;2023-02-28T12:03:45;21.70;;;12.13;;
1471;SDS011;963;42.644;23.336;2023-02-28T12:22:28;16.00;;;10.90;;
1471;SDS011;963;42.644;23.336;2023-02-28T12:27:47;23.50;;;11.27;;
1471;SDS011;963;42.644;23.336;2023-02-28T12:33:09;19.70;;;10.40;;
1471;SDS011;963;42.644;23.336;2023-02-28T12:35:41;21.60;;;11.90;;
1471;SDS011;963;42.644;23.336;2023-02-28T12:38:29;26.97;;;13.70;;
1471;SDS011;963;42.644;23.336;2023-02-28T12:41:03;21.87;;;12.33;;
1471;SDS011;963;42.644;23.336;2023-02-28T12:43:36;21.57;;;13.17;;
1471;SDS011;963;42.644;23.336;2023-02-28T12:46:09;22.57;;;14.07;;
1471;SDS011;963;42.644;23.336;2023-02-28T12:48:46;22.07;;;13.30;;
1471;SDS011;963;42.644;23.336;2023-02-28T12:51:16;26.23;;;14.17;;
1471;SDS011;963;42.644;23.336;2023-02-28T12:53:47;23.17;;;13.13;;
1471;SDS011;963;42.644;23.336;2023-02-28T12:59:10;20.83;;;13.80;;
1471;SDS011;963;42.644;23.336;2023-02-28T13:04:46;31.43;;;14.27;;
1471;SDS011;963;42.644;23.336;2023-02-28T13:09:30;25.50;;;14.90;;
1471;SDS011;963;42.644;23.336;2023-02-28T13:11:55;20.60;;;12.53;;
1471;SDS011;963;42.644;23.336;2023-02-28T13:16:59;22.20;;;14.07;;
1471;SDS011;963;42.644;23.336;2023-02-28T13:19:27;21.00;;;11.73;;
1471;SDS011;963;42.644;23.336;2023-02-28T13:21:58;17.90;;;10.67;;
1471;SDS011;963;42.644;23.336;2023-02-28T13:29:28;21.23;;;11.80;;
1471;SDS011;963;42.644;23.336;2023-02-28T13:34:33;19.93;;;10.30;;
1471;SDS011;963;42.644;23.336;2023-02-28T13:47:42;17.60;;;9.30;;
1471;SDS011;963;42.644;23.336;2023-02-28T14:01:14;17.30;;;9.40;;
1471;SDS011;963;42.644;23.336;2023-02-28T14:06:41;24.87;;;10.10;;
1471;SDS011;963;42.644;23.336;2023-02-28T14:11:42;20.33;;;10.17;;
1471;SDS011;963;42.644;23.336;2023-02-28T14:14:09;21.50;;;10.63;;
1471;SDS011;963;42.644;23.336;2023-02-28T14:16:54;17.73;;;10.30;;
1471;SDS011;963;42.644;23.336;2023-02-28T14:19:26;19.13;;;9.40;;
1471;SDS011;963;42.644;23.336;2023-02-28T14:27:33;17.50;;;11.17;;
1471;SDS011;963;42.644;23.336;2023-02-28T14:33:11;20.07;;;10.33;;
1471;SDS011;963;42.644;23.336;2023-02-28T14:38:21;19.10;;;11.30;;
1471;SDS011;963;42.644;23.336;2023-02-28T14:40:51;25.20;;;11.67;;
1471;SDS011;963;42.644;23.336;2023-02-28T14:43:23;20.57;;;11.03;;
1471;SDS011;963;42.644;23.336;2023-02-28T14:45:54;24.63;;;12.30;;
1471;SDS011;963;42.644;23.336;2023-02-28T14:48:23;15.30;;;9.17;;
1471;SDS011;963;42.644;23.336;2023-02-28T14:50:51;19.73;;;11.03;;
1471;SDS011;963;42.644;23.336;2023-02-28T14:53:19;19.27;;;11.33;;
1471;SDS011;963;42.644;23.336;2023-02-28T14:55:47;22.30;;;13.13;;
1471;SDS011;963;42.644;23.336;2023-02-28T15:00:54;25.43;;;11.57;;
1471;SDS011;963;42.644;23.336;2023-02-28T15:06:05;19.93;;;11.47;;
1471;SDS011;963;42.644;23.336;2023-02-28T15:08:37;22.40;;;12.07;;
1471;SDS011;963;42.644;23.336;2023-02-28T15:11:23;27.33;;;11.77;;
1471;SDS011;963;42.644;23.336;2023-02-28T15:13:52;23.47;;;12.77;;
1471;SDS011;963;42.644;23.336;2023-02-28T15:16:21;28.10;;;11.23;;
1471;SDS011;963;42.644;23.336;2023-02-28T15:19:06;24.00;;;12.90;;
1471;SDS011;963;42.644;23.336;2023-02-28T15:21:40;21.30;;;10.50;;
1471;SDS011;963;42.644;23.336;2023-02-28T15:26:50;23.20;;;10.30;;
1471;SDS011;963;42.644;23.336;2023-02-28T15:29:20;18.10;;;10.47;;
1471;SDS011;963;42.644;23.336;2023-02-28T15:31:50;17.90;;;10.47;;
1471;SDS011;963;42.644;23.336;2023-02-28T15:34:36;19.97;;;10.60;;
1471;SDS011;963;42.644;23.336;2023-02-28T15:37:24;16.30;;;9.73;;
1471;SDS011;963;42.644;23.336;2023-02-28T15:39:56;21.40;;;11.40;;
1471;SDS011;963;42.644;23.336;2023-02-28T15:42:23;22.17;;;11.33;;
1471;SDS011;963;42.644;23.336;2023-02-28T15:44:54;22.10;;;11.93;;
1471;SDS011;963;42.644;23.336;2023-02-28T15:47:20;16.23;;;11.93;;
1471;SDS011;963;42.644;23.336;2023-02-28T15:49:49;16.13;;;10.13;;
1471;SDS011;963;42.644;23.336;2023-02-28T15:52:38;14.10;;;8.97;;
1471;SDS011;963;42.644;23.336;2023-02-28T15:57:44;15.30;;;9.73;;
1471;SDS011;963;42.644;23.336;2023-02-28T16:00:16;16.90;;;9.53;;
1471;SDS011;963;42.644;23.336;2023-02-28T16:02:45;19.60;;;9.40;;
1471;SDS011;963;42.644;23.336;2023-02-28T16:07:39;21.20;;;9.20;;
1471;SDS011;963;42.644;23.336;2023-02-28T16:10:08;13.83;;;9.00;;
1471;SDS011;963;42.644;23.336;2023-02-28T16:12:36;11.87;;;8.37;;
1471;SDS011;963;42.644;23.336;2023-02-28T16:15:37;11.27;;;8.50;;
1471;SDS011;963;42.644;23.336;2023-02-28T16:18:00;14.50;;;8.70;;
1471;SDS011;963;42.644;23.336;2023-02-28T16:20:26;13.90;;;7.63;;
1471;SDS011;963;42.644;23.336;2023-02-28T16:22:54;9.70;;;7.80;;
1471;SDS011;963;42.644;23.336;2023-02-28T16:25:21;14.13;;;8.07;;
1471;SDS011;963;42.644;23.336;2023-02-28T16:27:59;12.03;;;7.83;;
1471;SDS011;963;42.644;23.336;2023-02-28T16:30:26;9.80;;;7.77;;
1471;SDS011;963;42.644;23.336;2023-02-28T16:32:54;14.03;;;8.43;;
1471;SDS011;963;42.644;23.336;2023-02-28T16:35:20;14.00;;;8.83;;
1471;SDS011;963;42.644;23.336;2023-02-28T16:37:46;12.83;;;8.43;;
1471;SDS011;963;42.644;23.336;2023-02-28T16:40:19;10.87;;;7.70;;
1471;SDS011;963;42.644;23.336;2023-02-28T16:42:48;10.10;;;6.87;;
1471;SDS011;963;42.644;23.336;2023-02-28T16:45:17;11.67;;;7.37;;
1471;SDS011;963;42.644;23.336;2023-02-28T16:47:45;11.33;;;7.60;;
1471;SDS011;963;42.644;23.336;2023-02-28T16:50:15;8.70;;;7.60;;
1471;SDS011;963;42.644;23.336;2023-02-28T16:52:45;12.30;;;7.40;;
1471;SDS011;963;42.644;23.336;2023-02-28T16:55:11;11.40;;;7.43;;
1471;SDS011;963;42.644;23.336;2023-02-28T16:57:37;15.20;;;8.00;;
1471;SDS011;963;42.644;23.336;2023-02-28T17:00:05;64.50;;;43.97;;
1471;SDS011;963;42.644;23.336;2023-02-28T17:02:33;34.10;;;24.03;;
1471;SDS011;963;42.644;23.336;2023-02-28T17:04:59;11.33;;;7.13;;
1471;SDS011;963;42.644;23.336;2023-02-28T17:07:25;9.30;;;6.73;;
1471;SDS011;963;42.644;23.336;2023-02-28T17:09:51;9.43;;;5.73;;
1471;SDS011;963;42.644;23.336;2023-02-28T17:12:16;8.60;;;6.23;;
1471;SDS011;963;42.644;23.336;2023-02-28T17:14:41;11.33;;;6.73;;
1471;SDS011;963;42.644;23.336;2023-02-28T17:17:07;8.53;;;6.20;;
1471;SDS011;963;42.644;23.336;2023-02-28T17:19:41;9.53;;;5.97;;
1471;SDS011;963;42.644;23.336;2023-02-28T17:22:08;9.20;;;5.83;;
1471;SDS011;963;42.644;23.336;2023-02-28T17:24:33;10.60;;;5.40;;
1471;SDS011;963;42.644;23.336;2023-02-28T17:26:59;7.83;;;5.30;;
1471;SDS011;963;42.644;23.336;2023-02-28T17:29:24;8.17;;;5.73;;
1471;SDS011;963;42.644;23.336;2023-02-28T17:31:50;9.50;;;5.50;;
1471;SDS011;963;42.644;23.336;2023-02-28T17:34:15;7.80;;;5.30;;
1471;SDS011;963;42.644;23.336;2023-02-28T17:36:43;9.57;;;5.60;;
1471;SDS011;963;42.644;23.336;2023-02-28T17:39:10;9.17;;;5.40;;
1471;SDS011;963;42.644;23.336;2023-02-28T17:41:39;7.17;;;4.73;;
1471;SDS011;963;42.644;23.336;2023-02-28T17:44:07;11.23;;;5.27;;
1471;SDS011;963;42.644;23.336;2023-02-28T17:46:33;10.83;;;5.00;;
1471;SDS011;963;42.644;23.336;2023-02-28T17:48:59;8.20;;;4.90;;